Αναφορές METAR Αεροδρομίων

 

LGTS - THESSALONIKI - GREECE
Ενημερώθηκε: 26/04/2019 17:20
Αίθριος
Αίθριος
 Ανεμος από Ν
Ανεμος: Ν 15 km/h
Θερμοκρασία: 25°C
Σημείο Δρόσου: 11°C
Υγρασία: 42%
Βαρόμετρο: 1016 hPa
Περίληψη: Αίθριος
Visibility: greater than 10 km
2019/04/26 14:20 LGTS 261420Z 18008KT CAVOK 25/11 Q1016 NOSIG
LGLR - LARTISA - GREECE
Ενημερώθηκε: 26/04/2019 16:50
Αραιές Νεφώσεις
Αραιές Νεφώσεις
 Ανεμος από calm
Ανεμος: Απνοια
Θερμοκρασία: 27°C
Σημείο Δρόσου: 12°C
Υγρασία: 39%
Βαρόμετρο: 1017 hPa
Clouds: Αραιές Νεφώσεις
Visibility: 10 km
Cloud details: Αραιές Νεφώσεις 914 m
2019/04/26 13:50 LGLR 261350Z 00000KT 9999 FEW030 27/12 Q1017 RMK FEW080 BLU
 
LGKZ - KOZANI - GREECE
Ενημερώθηκε: 26/04/2019 14:50
NOT Current
Αραιές Νεφώσεις
Αραιές Νεφώσεις
 Ανεμος από ΝΑ
Ανεμος: ΝΑ 7 km/h
Θερμοκρασία: 25°C
Σημείο Δρόσου: 10°C
Υγρασία: 39%
Βαρόμετρο: 1020 hPa
Clouds: Αραιές Νεφώσεις
Visibility: 10 km
Cloud details: Αραιές Νεφώσεις 762 m
2019/04/26 11:50 LGKZ 261150Z 14004KT 9999 FEW025 25/10 Q1020
LGKV - KAVALA - GREECE
Ενημερώθηκε: 26/04/2019 17:50
Αραιές Νεφώσεις
Αραιές Νεφώσεις
 Ανεμος από ΝΔ
Ανεμος: ΝΔ 6 km/h
Θερμοκρασία: 20°C
Σημείο Δρόσου: 13°C
Υγρασία: 64%
Βαρόμετρο: 1017 hPa
Clouds: Αραιές Νεφώσεις
Visibility: 10 km
Cloud details: Αραιές Νεφώσεις 914 m
2019/04/26 14:50 LGKV 261450Z 22003KT 9999 FEW030 20/13 Q1017
 
LGIO - IOANNINA - GREECE
Ενημερώθηκε: 26/04/2019 17:50
Αραιές Νεφώσεις
Αραιές Νεφώσεις
 Ανεμος από varies
Ανεμος: varies 0 km/h
Θερμοκρασία: 27°C
Σημείο Δρόσου: 6°C
Υγρασία: 26%
Βαρόμετρο: 1016 hPa
Clouds: Αραιές Νεφώσεις
Visibility: 10 km
Cloud details: Αραιές Νεφώσεις 1067 m
2019/04/26 14:50 LGIO 261450Z /////KT 9999 FEW035 27/06 Q1016
LGBL - BOLOS - GREECE
Ενημερώθηκε: 26/04/2019 17:50
Αραιές Νεφώσεις
Αραιές Νεφώσεις
 Ανεμος από Α
Ανεμος: Α 11 km/h
Θερμοκρασία: 22°C
Σημείο Δρόσου: 14°C
Υγρασία: 61%
Βαρόμετρο: 1017 hPa
Clouds: Αραιές Νεφώσεις
Visibility: 10 km
Cloud details: Αραιές Νεφώσεις 914 m
2019/04/26 14:50 LGBL 261450Z 08006KT 9999 FEW030 22/14 Q1017
 
LGMT - MITILINI - GREECE
Ενημερώθηκε: 26/04/2019 17:50
Αίθριος
Αίθριος
 Ανεμος από calm
Ανεμος: Απνοια
Θερμοκρασία: 23°C
Σημείο Δρόσου: 10°C
Υγρασία: 44%
Βαρόμετρο: 1018 hPa
Περίληψη: Αίθριος
Visibility: greater than 10 km
2019/04/26 14:50 LGMT 261450Z 00000KT CAVOK 23/10 Q1018
LGAV - ATHENS - GREECE
Ενημερώθηκε: 26/04/2019 17:50
Αίθριος
Αίθριος
 Ανεμος από ΑΒΑ
Ανεμος: ΑΒΑ 13 km/h
Θερμοκρασία: 22°C
Σημείο Δρόσου: 13°C
Υγρασία: 57%
Βαρόμετρο: 1018 hPa
Περίληψη: Αίθριος
Visibility: greater than 10 km
2019/04/26 14:50 LGAV 261450Z 07007KT CAVOK 22/13 Q1018 NOSIG
 
LGRP - RODOS - GREECE
Ενημερώθηκε: 26/04/2019 17:50
Αραιές Νεφώσεις
Αραιές Νεφώσεις
 Ανεμος από ΔΝΔ
Ανεμος: ΔΝΔ 13 km/h
Θερμοκρασία: 24°C
Σημείο Δρόσου: 10°C
Υγρασία: 41%
Βαρόμετρο: 1015 hPa
Clouds: Αραιές Νεφώσεις
Visibility: 10 km
Cloud details: Αραιές Νεφώσεις 610 m
2019/04/26 14:50 LGRP 261450Z 25007KT 9999 FEW020 24/10 Q1015 NOSIG
LGIR - HRAKLIO/KRITI - GREECE
Ενημερώθηκε: 26/04/2019 17:50
Αίθριος
Αίθριος
 Ανεμος από Β
Ανεμος: Β 6 km/h
Θερμοκρασία: 21°C
Σημείο Δρόσου: 16°C
Υγρασία: 73%
Βαρόμετρο: 1017 hPa
Περίληψη: Αίθριος
Visibility: greater than 10 km
2019/04/26 14:50 LGIR 261450Z 35003KT CAVOK 21/16 Q1017 NOSIG
 
LGMK - MIKONOS - GREECE
Ενημερώθηκε: 26/04/2019 17:50
Αίθριος
Αίθριος
 Ανεμος από Β
Ανεμος: Β 30 km/h
Θερμοκρασία: 21°C
Σημείο Δρόσου: 12°C
Υγρασία: 57%
Βαρόμετρο: 1017 hPa
Περίληψη: Αίθριος
Visibility: greater than 10 km
2019/04/26 14:50 LGMK 261450Z 01016KT CAVOK 21/12 Q1017
LGKR - KERKIRA - GREECE
Ενημερώθηκε: 26/04/2019 17:50
Αίθριος
Αίθριος
 Ανεμος από ΒΒΑ
Ανεμος: ΒΒΑ 13 km/h
Θερμοκρασία: 24°C
Σημείο Δρόσου: 14°C
Υγρασία: 54%
Βαρόμετρο: 1016 hPa
Περίληψη: Αίθριος
Visibility: greater than 10 km
2019/04/26 14:50 LGKR 261450Z 02007KT CAVOK 24/14 Q1016 NOSIG